• Join FlightAware (Why Join?)
  • Login
  • US Flag 
08:56AM EST


 

Airport Tracker/Info


-or-


 

Live Flight TrackerFlight Track Log ✈ FIN666 ✈ 23-Apr-2014 ✈ EKCH / CPH - EFHK / HEL

Flight Track Log - Related Links

Times and Time Zones

All times are in EDT time to prevent confusion due to time zone crossing. See the FIN666 flight status page for this flight to view local times or setup timezone preferences in your user account.

Time Position Orientation Groundspeed Altitude Reporting Facility
EDT Latitude Longitude Course Direction KTS MPH feet Rate Location/Type
07:34AM 55.9392 13.3227 49° Northeast  Level Estimated
07:35AM 56.0189 13.4911 50° Northeast  Level Estimated
07:36AM 56.0985 13.6603 50° Northeast  Level Estimated
07:37AM 56.1777 13.8301 50° Northeast  Level Estimated
07:38AM 56.2568 14.0006 50° Northeast  Level Estimated
07:39AM 56.3356 14.1718 50° Northeast  Level Estimated
07:40AM 56.4142 14.3437 50° Northeast  Level Estimated
07:41AM 56.4925 14.5164 51° Northeast  Level Estimated
07:42AM 56.5706 14.6897 51° Northeast  Level Estimated
07:43AM 56.6485 14.8638 51° Northeast  Level Estimated
07:44AM 56.7261 15.0386 51° Northeast  Level Estimated
07:45AM 56.8035 15.2141 51° Northeast  Level Estimated
07:46AM 56.8806 15.3903 51° Northeast  Level Estimated
07:47AM 56.9575 15.5673 51° Northeast  Level Estimated
07:48AM 57.0341 15.7450 52° Northeast  Level Estimated
07:49AM 57.1105 15.9234 52° Northeast  Level Estimated
07:50AM 57.1866 16.1025 52° Northeast  Level Estimated
07:51AM 57.2625 16.2824 52° Northeast  Level Estimated
07:52AM 57.3381 16.4631 52° Northeast  Level Estimated
07:53AM 57.4134 16.6444 52° Northeast  Level Estimated
07:54AM 57.4885 16.8266 52° Northeast  Level Estimated
07:55AM 57.5633 17.0095 53° Northeast  Level Estimated
07:56AM 57.6379 17.1931 53° Northeast  Level Estimated
07:57AM 57.7122 17.3775 53° Northeast  Level Estimated
07:58AM 57.7862 17.5626 53° Northeast  Level Estimated
07:59AM 57.8599 17.7485 53° Northeast  Level Estimated
08:00AM 57.9334 17.9352 53° Northeast  Level Estimated
08:01AM 58.0066 18.1226 54° Northeast  Level Estimated
08:02AM 58.0795 18.3108 54° Northeast  Level Estimated
08:03AM 58.1521 18.4997 54° Northeast  Level Estimated
08:04AM 58.2245 18.6895 54° Northeast  Level Estimated
08:05AM 58.2966 18.8800 54° Northeast  Level Estimated
08:06AM 58.3684 19.0713 54° Northeast  Level Estimated
08:07AM 58.4399 19.2633 55° Northeast  Level Estimated
08:08AM 58.5111 19.4562 55° Northeast  Level Estimated
08:09AM 58.5820 19.6498 55° Northeast  Level Estimated
08:10AM 58.6527 19.8442 55° Northeast  Level Estimated
08:11AM 58.7230 20.0394 55° Northeast  Level Estimated
08:12AM 58.7931 20.2354 55° Northeast  Level Estimated
08:13AM 58.8628 20.4322 56° Northeast  Level Estimated
08:14AM 58.9323 20.6297 56° Northeast  Level Estimated
08:15AM 59.0014 20.8281 56° Northeast  Level Estimated
08:16AM 59.0703 21.0273 56° Northeast  Level Estimated
08:17AM 59.1388 21.2272 56° Northeast  Level Estimated
08:18AM 59.2070 21.4280 56° Northeast  Level Estimated
08:19AM 59.2749 21.6295 57° Northeast  Level Estimated
08:20AM 59.3425 21.8319 57° Northeast  Level Estimated
08:21AM 59.4098 22.0351 57° Northeast  Level Estimated
08:22AM 59.4768 22.2390 57° Northeast  Level Estimated
08:23AM 59.5435 22.4438 57° Northeast  Level Estimated
08:24AM 59.6098 22.6494 57° Northeast  Level Estimated
08:25AM 59.6758 22.8558 58° Northeast  Level Estimated
08:26AM 59.7415 23.0630 58° Northeast  Level Estimated
08:27AM 59.8068 23.2711 58° Northeast  Level Estimated
08:28AM 59.8719 23.4799 58° Northeast  Level Estimated
08:29AM 59.9366 23.6896 58° Northeast  Level Estimated
08:30AM 60.0009 23.9001 58° Northeast  Level Estimated
08:31AM 60.0649 24.1114 59° Northeast  Level Estimated
08:32AM 60.1286 24.3235 59° Northeast  Level Estimated
08:33AM 60.1920 24.5364 59° Northeast  Level Estimated
08:34AM 60.2550 24.7502 59° Northeast  Level Estimated
08:35AM 60.3172 24.9633 59° Northeast  Level Estimated
08:36AM 60.3172 24.9633 North  Level Estimated
08:37AM 60.3172 24.9633 North  Level Estimated
08:38AM 60.3172 24.9633 North  Level Estimated
08:39AM 60.3172 24.9633 North  Level Estimated
08:40AM 60.3172 24.9633 North  Level Estimated
08:41AM 60.3172 24.9633 North  Level Estimated
08:42AM 60.3172 24.9633 North  Level Estimated
08:43AM 60.3172 24.9633 North  Level Estimated
08:44AM 60.3172 24.9633 North  Level Estimated
08:45AM 60.3172 24.9633 North  Level Estimated
08:46AM 60.3172 24.9633 North  Level Estimated
08:47AM 60.3172 24.9633 North  Level Estimated
08:48AM 60.3172 24.9633 North  Level Estimated
08:49AM 60.3172 24.9633 North  Level Estimated
08:50AM 60.3172 24.9633 North  Level Estimated
08:51AM 60.3172 24.9633 North  Level Estimated